createdAt,value
2022-12-31T00:01:36.757Z,11.86
2022-12-31T00:04:08.970Z,11.82
2022-12-31T00:06:38.903Z,11.77
2022-12-31T00:09:09.804Z,11.73
2022-12-31T00:11:40.235Z,11.72
2022-12-31T00:14:10.002Z,11.70
2022-12-31T00:16:41.818Z,11.68
2022-12-31T00:19:15.034Z,11.68
2022-12-31T00:21:46.333Z,11.68
2022-12-31T00:24:15.920Z,11.69
2022-12-31T00:26:45.508Z,11.72
2022-12-31T00:29:15.077Z,11.73
2022-12-31T00:31:44.645Z,11.75
2022-12-31T00:34:16.819Z,11.76
2022-12-31T00:36:46.369Z,11.78
2022-12-31T00:39:16.196Z,11.79
2022-12-31T00:41:46.041Z,11.80
2022-12-31T00:44:15.648Z,11.83
2022-12-31T00:49:16.996Z,11.87
2022-12-31T00:51:46.771Z,11.89
2022-12-31T00:54:16.714Z,11.92
2022-12-31T00:56:46.715Z,11.94
2022-12-31T00:59:16.578Z,11.95
2022-12-31T01:01:46.339Z,11.95
2022-12-31T01:04:20.750Z,11.97
2022-12-31T01:06:50.459Z,11.98
2022-12-31T01:09:21.194Z,11.99
2022-12-31T01:11:53.217Z,12.04
2022-12-31T01:14:23.255Z,12.06
2022-12-31T01:16:54.574Z,12.08
2022-12-31T01:19:28.791Z,12.10
2022-12-31T01:21:59.104Z,12.12
2022-12-31T01:24:28.720Z,12.14
2022-12-31T01:26:59.153Z,12.18
2022-12-31T01:29:29.668Z,12.19
2022-12-31T01:31:59.288Z,12.21
2022-12-31T01:34:31.506Z,12.25
2022-12-31T01:37:01.078Z,12.27
2022-12-31T01:39:30.684Z,12.31
2022-12-31T01:42:01.182Z,12.33
2022-12-31T01:44:48.198Z,12.36
2022-12-31T01:47:21.247Z,12.37
2022-12-31T01:49:56.416Z,12.41
2022-12-31T01:52:30.466Z,12.41
2022-12-31T01:55:01.119Z,12.43
2022-12-31T01:57:30.963Z,12.46
2022-12-31T02:00:01.857Z,12.48
2022-12-31T02:02:34.624Z,12.52
2022-12-31T02:05:13.454Z,12.57
2022-12-31T02:07:43.052Z,12.60
2022-12-31T02:10:12.626Z,12.62
2022-12-31T02:12:42.516Z,12.65
2022-12-31T02:15:12.865Z,12.70
2022-12-31T02:17:50.859Z,12.74
2022-12-31T02:20:42.348Z,12.79
2022-12-31T02:23:34.546Z,12.84
2022-12-31T02:26:44.587Z,12.88
2022-12-31T02:29:32.087Z,12.91
2022-12-31T02:32:07.014Z,12.94
2022-12-31T02:34:40.491Z,12.97
2022-12-31T02:37:13.617Z,13.02
2022-12-31T02:39:44.231Z,13.06
2022-12-31T02:42:14.492Z,13.09
2022-12-31T02:44:44.988Z,13.13
2022-12-31T02:47:25.185Z,13.15
2022-12-31T02:50:05.840Z,13.16
2022-12-31T02:52:41.278Z,13.18
2022-12-31T02:55:14.121Z,13.20
2022-12-31T02:57:47.215Z,13.26
2022-12-31T03:00:30.777Z,13.29
2022-12-31T03:03:04.172Z,13.33
2022-12-31T03:05:37.807Z,13.39
2022-12-31T03:08:07.857Z,13.45
2022-12-31T03:10:37.619Z,13.49
2022-12-31T03:13:04.598Z,13.55
2022-12-31T03:15:35.796Z,13.62
2022-12-31T03:18:09.912Z,13.69
2022-12-31T03:20:53.948Z,13.77
2022-12-31T03:23:25.344Z,13.84
2022-12-31T03:25:53.402Z,13.91
2022-12-31T03:28:26.321Z,14.01
2022-12-31T03:30:58.361Z,14.11
2022-12-31T03:33:34.021Z,14.19
2022-12-31T03:36:06.425Z,14.25
2022-12-31T03:38:36.064Z,14.30
2022-12-31T03:41:05.798Z,14.35
2022-12-31T03:43:35.436Z,14.43
2022-12-31T03:46:05.050Z,14.47
2022-12-31T03:48:37.274Z,14.52
2022-12-31T03:51:07.861Z,14.56
2022-12-31T03:53:37.566Z,14.59
2022-12-31T03:56:08.194Z,14.62
2022-12-31T03:58:37.755Z,14.64
2022-12-31T04:01:07.370Z,14.66
2022-12-31T04:03:40.094Z,14.67
2022-12-31T04:06:09.959Z,14.68
2022-12-31T04:08:39.569Z,14.67
2022-12-31T04:11:09.103Z,14.67
2022-12-31T04:13:38.664Z,14.68
2022-12-31T04:16:08.538Z,14.71
2022-12-31T04:18:40.745Z,14.74
2022-12-31T04:21:10.392Z,14.74
2022-12-31T04:23:39.964Z,14.74
2022-12-31T04:26:09.544Z,14.76
2022-12-31T04:28:39.149Z,14.77
2022-12-31T04:31:08.735Z,14.79
2022-12-31T04:33:40.938Z,14.77
2022-12-31T04:36:11.435Z,14.80
2022-12-31T04:38:41.015Z,14.82
2022-12-31T04:41:20.732Z,14.84
2022-12-31T04:43:51.607Z,14.88
2022-12-31T04:46:22.635Z,14.92
2022-12-31T04:48:54.887Z,14.92
2022-12-31T04:51:25.062Z,14.93
2022-12-31T04:53:54.852Z,14.94
2022-12-31T04:56:24.760Z,14.94
2022-12-31T04:58:54.478Z,14.96
2022-12-31T05:01:24.692Z,14.98
2022-12-31T05:03:56.993Z,15.02
2022-12-31T05:06:26.650Z,15.05
2022-12-31T05:08:56.332Z,15.06
2022-12-31T05:11:25.896Z,15.11
2022-12-31T05:13:55.501Z,15.12
2022-12-31T05:16:25.158Z,15.17
2022-12-31T05:18:57.354Z,15.19
2022-12-31T05:21:26.907Z,15.20
2022-12-31T05:23:56.479Z,15.20
2022-12-31T05:26:26.039Z,15.20
2022-12-31T05:28:56.519Z,15.21
2022-12-31T05:31:26.281Z,15.23
2022-12-31T05:33:58.581Z,15.26
2022-12-31T05:36:28.175Z,15.26
2022-12-31T05:38:57.900Z,15.28
2022-12-31T05:41:27.469Z,15.30
2022-12-31T05:43:57.083Z,15.34
2022-12-31T05:46:26.652Z,15.33
2022-12-31T05:48:58.903Z,15.34
2022-12-31T05:51:28.472Z,15.35
2022-12-31T05:53:58.060Z,15.36
2022-12-31T05:56:27.620Z,15.38
2022-12-31T05:58:57.259Z,15.39
2022-12-31T06:01:27.077Z,15.40
2022-12-31T06:03:59.335Z,15.39
2022-12-31T06:06:29.064Z,15.39
2022-12-31T06:08:58.652Z,15.39
2022-12-31T06:11:28.271Z,15.37
2022-12-31T06:13:58.306Z,15.38
2022-12-31T06:16:28.110Z,15.39
2022-12-31T06:19:00.508Z,15.38
2022-12-31T06:21:31.787Z,15.39
2022-12-31T06:24:01.401Z,15.37
2022-12-31T06:26:31.214Z,15.37
2022-12-31T06:29:00.776Z,15.37
2022-12-31T06:31:30.403Z,15.39
2022-12-31T06:34:02.613Z,15.39
2022-12-31T06:36:32.188Z,15.41
2022-12-31T06:39:02.239Z,15.42
2022-12-31T06:41:31.881Z,15.44
2022-12-31T06:44:01.473Z,15.45
2022-12-31T06:46:31.121Z,15.46
2022-12-31T06:49:03.381Z,15.47
2022-12-31T06:51:33.008Z,15.50
2022-12-31T06:54:02.606Z,15.51
2022-12-31T06:56:34.832Z,15.56
2022-12-31T06:59:05.818Z,15.59
2022-12-31T07:01:46.131Z,15.60
2022-12-31T07:04:33.360Z,15.64
2022-12-31T07:07:09.033Z,15.65
2022-12-31T07:09:43.142Z,15.68
2022-12-31T07:12:22.766Z,15.70
2022-12-31T07:14:55.794Z,15.72
2022-12-31T07:17:31.700Z,15.74
2022-12-31T07:20:08.656Z,15.78
2022-12-31T07:22:38.934Z,15.77
2022-12-31T07:25:10.190Z,15.76
2022-12-31T07:27:49.991Z,15.76
2022-12-31T07:30:23.327Z,15.73
2022-12-31T07:33:14.533Z,15.70
2022-12-31T07:35:52.068Z,15.70
2022-12-31T07:38:26.499Z,15.71
2022-12-31T07:41:09.673Z,15.72
2022-12-31T07:43:55.225Z,15.74
2022-12-31T07:46:31.315Z,15.76
2022-12-31T07:49:01.832Z,15.78
2022-12-31T07:51:34.846Z,15.79
2022-12-31T07:54:08.716Z,15.80
2022-12-31T07:56:41.506Z,15.82
2022-12-31T07:59:24.262Z,15.83
2022-12-31T08:02:00.228Z,15.85
2022-12-31T08:04:33.906Z,15.87
2022-12-31T08:07:14.403Z,15.90
2022-12-31T08:09:49.865Z,15.91
2022-12-31T08:12:21.139Z,15.91
2022-12-31T08:14:51.331Z,15.93
2022-12-31T08:17:22.338Z,15.94
2022-12-31T08:19:53.051Z,15.95
2022-12-31T08:22:55.086Z,15.98
2022-12-31T08:25:31.338Z,15.99
2022-12-31T08:28:07.565Z,16.02
2022-12-31T08:30:55.931Z,16.03
2022-12-31T08:33:30.277Z,16.03
2022-12-31T08:36:11.182Z,16.03
2022-12-31T08:38:48.192Z,16.05
2022-12-31T08:41:23.651Z,16.05
2022-12-31T08:44:00.996Z,16.07
2022-12-31T08:46:34.459Z,16.08
2022-12-31T08:49:04.630Z,16.08
2022-12-31T08:51:34.706Z,16.10
2022-12-31T08:54:08.283Z,16.11
2022-12-31T08:56:48.789Z,16.12
2022-12-31T08:59:30.283Z,16.15
2022-12-31T09:02:29.534Z,16.17
2022-12-31T09:05:07.685Z,16.17
2022-12-31T09:07:40.468Z,16.18
2022-12-31T09:10:20.020Z,16.19
2022-12-31T09:12:54.902Z,16.20
2022-12-31T09:15:29.147Z,16.23
2022-12-31T09:17:59.331Z,16.23
2022-12-31T09:20:42.343Z,16.26
2022-12-31T09:23:13.479Z,16.28
2022-12-31T09:25:51.204Z,16.30
2022-12-31T09:28:33.981Z,16.32
2022-12-31T09:31:09.249Z,16.34
2022-12-31T09:33:43.969Z,16.34
2022-12-31T09:36:17.569Z,16.37
2022-12-31T09:38:53.034Z,16.40
2022-12-31T09:41:50.162Z,16.41
2022-12-31T09:44:44.574Z,16.41
2022-12-31T09:47:56.105Z,16.41
2022-12-31T09:50:45.382Z,16.43
2022-12-31T09:53:33.217Z,16.46
2022-12-31T09:56:07.361Z,16.48
2022-12-31T09:58:47.943Z,16.52
2022-12-31T10:01:26.479Z,16.54
2022-12-31T10:04:23.372Z,16.54
2022-12-31T10:07:02.672Z,16.55
2022-12-31T10:09:48.750Z,16.55
2022-12-31T10:12:42.702Z,16.54
2022-12-31T10:15:35.685Z,16.52
2022-12-31T10:18:09.953Z,16.54
2022-12-31T10:20:50.735Z,16.56
2022-12-31T10:24:07.151Z,16.58
2022-12-31T10:26:56.613Z,16.60
2022-12-31T10:29:32.270Z,16.61
2022-12-31T10:32:18.127Z,16.64
2022-12-31T10:34:56.585Z,16.65
2022-12-31T10:37:31.778Z,16.65
2022-12-31T10:40:21.480Z,16.64
2022-12-31T10:43:19.420Z,16.65
2022-12-31T10:46:28.011Z,16.65
2022-12-31T10:49:30.163Z,16.65
2022-12-31T10:52:14.045Z,16.65
2022-12-31T10:54:58.414Z,16.65
2022-12-31T10:58:03.989Z,16.69
2022-12-31T11:00:37.512Z,16.70
2022-12-31T11:03:39.961Z,16.71
2022-12-31T11:06:45.516Z,16.70
2022-12-31T11:09:59.223Z,16.71
2022-12-31T11:12:55.369Z,16.74
2022-12-31T11:15:49.880Z,16.75
2022-12-31T11:18:25.228Z,16.77
2022-12-31T11:21:09.343Z,16.80
2022-12-31T11:23:43.821Z,16.81
2022-12-31T11:26:20.789Z,16.82
2022-12-31T11:29:13.242Z,16.84
2022-12-31T11:31:55.009Z,16.82
2022-12-31T11:34:45.471Z,16.81
2022-12-31T11:37:29.844Z,16.80
2022-12-31T11:40:09.395Z,16.79
2022-12-31T11:42:46.316Z,16.78
2022-12-31T11:45:30.238Z,16.75
2022-12-31T11:48:29.502Z,16.73
2022-12-31T11:51:00.855Z,16.74
2022-12-31T11:54:01.264Z,16.73
2022-12-31T11:56:35.387Z,16.73
2022-12-31T11:59:10.302Z,16.71
2022-12-31T12:01:53.823Z,16.72
2022-12-31T12:04:23.429Z,16.70
2022-12-31T12:06:53.301Z,16.68
2022-12-31T12:09:31.099Z,16.69
2022-12-31T12:12:01.957Z,16.71
2022-12-31T12:14:35.422Z,16.68
2022-12-31T12:17:10.266Z,16.69
2022-12-31T12:19:46.276Z,16.68
2022-12-31T12:22:17.572Z,16.67
2022-12-31T12:25:00.902Z,16.67
2022-12-31T12:27:32.997Z,16.66
2022-12-31T12:30:12.138Z,16.68
2022-12-31T12:32:54.544Z,16.70
2022-12-31T12:35:27.728Z,16.70
2022-12-31T12:38:05.451Z,16.71
2022-12-31T12:40:35.901Z,16.74
2022-12-31T12:43:06.961Z,16.76
2022-12-31T12:45:41.959Z,16.73
2022-12-31T12:48:20.514Z,16.72
2022-12-31T12:50:51.269Z,16.70
2022-12-31T12:53:34.356Z,16.70
2022-12-31T12:56:12.036Z,16.71
2022-12-31T12:58:53.114Z,16.72
2022-12-31T13:01:28.386Z,16.72
2022-12-31T13:04:34.328Z,16.74
2022-12-31T13:07:16.647Z,16.72
2022-12-31T13:10:01.154Z,16.73
2022-12-31T13:12:48.893Z,16.73
2022-12-31T13:15:27.817Z,16.73
2022-12-31T13:18:05.126Z,16.74
2022-12-31T13:20:43.845Z,16.74
2022-12-31T13:23:20.026Z,16.75
2022-12-31T13:26:03.935Z,16.71
2022-12-31T13:28:34.216Z,16.65
2022-12-31T13:31:07.210Z,16.59
2022-12-31T13:33:40.274Z,16.55
2022-12-31T13:36:16.268Z,16.52
2022-12-31T13:38:49.286Z,16.46
2022-12-31T13:41:20.757Z,16.37
2022-12-31T13:43:54.536Z,16.27
2022-12-31T13:46:29.223Z,16.20
2022-12-31T13:49:01.267Z,16.14
2022-12-31T13:51:40.367Z,16.06
2022-12-31T13:54:18.804Z,15.99
2022-12-31T13:56:48.488Z,15.90
2022-12-31T13:59:20.632Z,15.83
2022-12-31T14:01:54.219Z,15.78
2022-12-31T14:04:28.034Z,15.73
2022-12-31T14:07:02.982Z,15.65
2022-12-31T14:09:35.615Z,15.60
2022-12-31T14:12:17.857Z,15.54
2022-12-31T14:14:52.700Z,15.47
2022-12-31T14:17:27.118Z,15.40
2022-12-31T14:20:04.772Z,15.35
2022-12-31T14:22:42.621Z,15.28
2022-12-31T14:25:20.716Z,15.23
2022-12-31T14:27:51.208Z,15.19
2022-12-31T14:30:22.780Z,15.15
2022-12-31T14:33:25.327Z,15.13
2022-12-31T14:36:10.633Z,15.10
2022-12-31T14:38:56.302Z,15.06
2022-12-31T14:41:43.193Z,15.03
2022-12-31T14:44:22.587Z,15.01
2022-12-31T14:47:02.645Z,15.01
2022-12-31T14:49:41.282Z,14.98
2022-12-31T14:52:12.188Z,14.97
2022-12-31T14:54:45.126Z,14.93
2022-12-31T14:57:24.723Z,14.92
2022-12-31T14:59:55.536Z,14.88
2022-12-31T15:02:29.403Z,14.87
2022-12-31T15:05:06.769Z,14.84
2022-12-31T15:07:40.531Z,14.81
2022-12-31T15:10:19.204Z,14.79
2022-12-31T15:13:01.778Z,14.80
2022-12-31T15:15:38.909Z,14.78
2022-12-31T15:18:21.967Z,14.79
2022-12-31T15:21:05.695Z,14.79
2022-12-31T15:23:38.477Z,14.83
2022-12-31T15:26:24.012Z,14.86
2022-12-31T15:29:02.786Z,14.90
2022-12-31T15:31:32.860Z,14.90
2022-12-31T15:34:04.136Z,14.92
2022-12-31T15:36:35.750Z,14.92
2022-12-31T15:39:44.613Z,14.91
2022-12-31T15:42:49.207Z,14.92
2022-12-31T15:45:24.198Z,14.93
2022-12-31T15:47:59.037Z,14.95
2022-12-31T15:50:28.905Z,14.97
2022-12-31T15:52:59.949Z,14.98
2022-12-31T15:55:33.224Z,15.02
2022-12-31T15:58:07.742Z,15.06
2022-12-31T16:00:49.657Z,15.09
2022-12-31T16:03:24.597Z,15.10
2022-12-31T16:05:55.257Z,15.11
2022-12-31T16:08:27.042Z,15.12
2022-12-31T16:10:57.002Z,15.12
2022-12-31T16:13:30.670Z,15.11
2022-12-31T16:16:03.593Z,15.11
2022-12-31T16:18:40.040Z,15.10
2022-12-31T16:21:23.462Z,15.08
2022-12-31T16:23:53.942Z,15.04
2022-12-31T16:26:23.790Z,14.99
2022-12-31T16:28:55.934Z,14.94
2022-12-31T16:31:25.538Z,14.91
2022-12-31T16:33:55.152Z,14.87
2022-12-31T16:36:26.481Z,14.81
2022-12-31T16:38:59.512Z,14.76
2022-12-31T16:41:29.085Z,14.69
2022-12-31T16:44:01.240Z,14.69
2022-12-31T16:46:33.647Z,14.67
2022-12-31T16:49:10.402Z,14.68
2022-12-31T16:51:40.616Z,14.68
2022-12-31T16:54:18.966Z,14.66
2022-12-31T16:56:48.628Z,14.62
2022-12-31T16:59:29.302Z,14.63
2022-12-31T17:02:04.719Z,14.60
2022-12-31T17:04:34.455Z,14.58
2022-12-31T17:07:27.221Z,14.54
2022-12-31T17:10:05.000Z,14.49
2022-12-31T17:13:00.557Z,14.46
2022-12-31T17:15:30.491Z,14.46
2022-12-31T17:18:01.330Z,14.46
2022-12-31T17:20:32.827Z,14.46
2022-12-31T17:23:04.529Z,14.45
2022-12-31T17:25:35.847Z,14.41
2022-12-31T17:28:07.129Z,14.38
2022-12-31T17:30:45.381Z,14.38
2022-12-31T17:33:34.317Z,14.36
2022-12-31T17:36:22.287Z,14.35
2022-12-31T17:38:51.908Z,14.33
2022-12-31T17:41:27.298Z,14.32
2022-12-31T17:43:57.971Z,14.32
2022-12-31T17:46:30.266Z,14.36
2022-12-31T17:49:02.315Z,14.35
2022-12-31T17:51:31.926Z,14.30
2022-12-31T17:54:02.799Z,14.28
2022-12-31T17:56:32.448Z,14.29
2022-12-31T17:59:02.029Z,14.26
2022-12-31T18:01:34.393Z,14.28
2022-12-31T18:04:04.103Z,14.28
2022-12-31T18:06:33.699Z,14.28
2022-12-31T18:09:03.666Z,14.27
2022-12-31T18:11:33.371Z,14.26
2022-12-31T18:14:02.958Z,14.26
2022-12-31T18:16:35.678Z,14.24
2022-12-31T18:19:05.409Z,14.23
2022-12-31T18:21:36.424Z,14.21
2022-12-31T18:24:06.925Z,14.21
2022-12-31T18:26:36.505Z,14.20
2022-12-31T18:29:17.114Z,14.21
2022-12-31T18:31:51.610Z,14.20
2022-12-31T18:34:21.619Z,14.17
2022-12-31T18:36:51.275Z,14.13
2022-12-31T18:39:20.853Z,14.10
2022-12-31T18:41:51.708Z,14.08
2022-12-31T18:44:21.317Z,14.08
2022-12-31T18:46:53.485Z,14.12
2022-12-31T18:49:24.641Z,14.14
2022-12-31T18:51:55.267Z,14.14
2022-12-31T18:54:24.882Z,14.13
2022-12-31T18:56:57.184Z,14.13
2022-12-31T18:59:27.042Z,14.13
2022-12-31T19:01:59.289Z,14.14
2022-12-31T19:04:28.958Z,14.11
2022-12-31T19:06:59.144Z,14.13
2022-12-31T19:09:45.265Z,14.13
2022-12-31T19:12:16.838Z,14.11
2022-12-31T19:14:46.436Z,14.09
2022-12-31T19:17:18.629Z,14.12
2022-12-31T19:19:48.256Z,14.15
2022-12-31T19:22:18.347Z,14.17
2022-12-31T19:24:47.908Z,14.18
2022-12-31T19:27:17.479Z,14.15
2022-12-31T19:29:47.077Z,14.14
2022-12-31T19:32:19.217Z,14.13
2022-12-31T19:34:48.806Z,14.12
2022-12-31T19:37:18.406Z,14.14
2022-12-31T19:39:48.037Z,14.15
2022-12-31T19:42:18.348Z,14.16
2022-12-31T19:44:47.924Z,14.15
2022-12-31T19:47:20.056Z,14.16
2022-12-31T19:49:49.737Z,14.16
2022-12-31T19:52:19.272Z,14.17
2022-12-31T19:54:49.063Z,14.15
2022-12-31T19:57:18.633Z,14.12
2022-12-31T19:59:48.189Z,14.10
2022-12-31T20:02:20.381Z,14.10
2022-12-31T20:04:50.006Z,14.10
2022-12-31T20:07:25.275Z,14.09
2022-12-31T20:09:56.663Z,14.04
2022-12-31T20:12:26.221Z,14.01
2022-12-31T20:14:55.794Z,14.00
2022-12-31T20:17:28.228Z,13.98
2022-12-31T20:19:57.974Z,14.03
2022-12-31T20:22:27.561Z,14.12
2022-12-31T20:24:58.258Z,14.19
2022-12-31T20:27:27.855Z,14.27
2022-12-31T20:29:57.437Z,14.37
2022-12-31T20:32:29.616Z,14.46
2022-12-31T20:34:59.250Z,14.53
2022-12-31T20:37:28.830Z,14.60
2022-12-31T20:39:58.443Z,14.65
2022-12-31T20:42:28.036Z,14.68
2022-12-31T20:44:57.602Z,14.69
2022-12-31T20:47:29.734Z,14.67
2022-12-31T20:50:14.660Z,14.61
2022-12-31T20:52:44.830Z,14.58
2022-12-31T20:55:16.904Z,14.52
2022-12-31T20:57:46.622Z,14.48
2022-12-31T21:00:16.885Z,14.46
2022-12-31T21:02:56.353Z,14.44
2022-12-31T21:05:30.326Z,14.45
2022-12-31T21:08:00.047Z,14.51
2022-12-31T21:10:30.049Z,14.56
2022-12-31T21:12:57.042Z,14.62
2022-12-31T21:15:26.697Z,14.64
2022-12-31T21:18:00.140Z,14.67
2022-12-31T21:20:29.727Z,14.70
2022-12-31T21:22:59.349Z,14.70
2022-12-31T21:25:29.037Z,14.71
2022-12-31T21:27:58.616Z,14.70
2022-12-31T21:30:28.209Z,14.70
2022-12-31T21:33:00.358Z,14.71
2022-12-31T21:35:51.816Z,14.72
2022-12-31T21:38:19.567Z,14.69
2022-12-31T21:40:49.522Z,14.60
2022-12-31T21:43:19.103Z,14.53
2022-12-31T21:45:48.757Z,14.47
2022-12-31T21:48:25.075Z,14.38
2022-12-31T21:50:56.891Z,14.30
2022-12-31T21:53:35.991Z,14.26
2022-12-31T21:56:11.128Z,14.29
2022-12-31T21:58:42.387Z,14.32
2022-12-31T22:01:26.287Z,14.37
2022-12-31T22:03:58.603Z,14.43
2022-12-31T22:06:28.188Z,14.48
2022-12-31T22:08:59.289Z,14.52
2022-12-31T22:11:30.204Z,14.53
2022-12-31T22:13:59.839Z,14.58
2022-12-31T22:16:29.634Z,14.60
2022-12-31T22:19:01.920Z,14.62
2022-12-31T22:21:31.620Z,14.63
2022-12-31T22:24:03.115Z,14.65
2022-12-31T22:26:32.733Z,14.64
2022-12-31T22:29:02.334Z,14.62
2022-12-31T22:31:32.663Z,14.62
2022-12-31T22:34:04.924Z,14.61
2022-12-31T22:36:34.537Z,14.62
2022-12-31T22:39:04.108Z,14.63
2022-12-31T22:41:33.723Z,14.64
2022-12-31T22:44:05.118Z,14.66
2022-12-31T22:46:35.155Z,14.67
2022-12-31T22:49:07.761Z,14.68
2022-12-31T22:51:57.136Z,14.70
2022-12-31T22:54:27.145Z,14.74
2022-12-31T22:56:56.709Z,14.75
2022-12-31T22:59:26.491Z,14.75
2022-12-31T23:01:56.063Z,14.75
2022-12-31T23:04:28.287Z,14.76
2022-12-31T23:06:57.977Z,14.74
2022-12-31T23:09:40.040Z,14.73
2022-12-31T23:12:11.375Z,14.75
2022-12-31T23:14:53.425Z,14.76
2022-12-31T23:17:37.982Z,14.78
2022-12-31T23:20:27.028Z,14.77
2022-12-31T23:23:10.221Z,14.75
2022-12-31T23:25:42.202Z,14.72
2022-12-31T23:28:13.862Z,14.72
2022-12-31T23:30:43.921Z,14.74
2022-12-31T23:33:17.603Z,14.74
2022-12-31T23:35:49.982Z,14.73
2022-12-31T23:38:20.368Z,14.69
2022-12-31T23:40:49.938Z,14.71
2022-12-31T23:43:23.331Z,14.68
2022-12-31T23:45:53.473Z,14.68
2022-12-31T23:48:23.087Z,14.67
2022-12-31T23:50:55.654Z,14.65
2022-12-31T23:53:25.521Z,14.64
2022-12-31T23:55:55.698Z,14.62
2022-12-31T23:58:25.315Z,14.63
